Abeytas, New Mexico
Current Conditions -  °F | °C
As of 6:35 AM on Friday 28 Nov 2014 (Local Time) from KE80 Reporting Station
Clear Clear  
Wind Chill: 16°   Ceiling: Unl
Heat Index: 23°   Visibility: 10mi
Dew Point: 13°   Wind: 6mph
Humidity: 67%   Direction: 310°NW
Pressure: 30.29"   Gusts: NA
Location:  34.4828°N, 106.804°W
Report Text: KE80 281335Z AUTO 31005KT 10SM CLR M05/M10 A3029 RMK AO2 T10511104
Loading
Personal Weather Stations






























Interactive Weather Map New forecast layout! Learn more

10-Day Weather Forecast

Advertisements
Track Severe Weather on mobile